Time;durP1;ratioP1;P1;durP2;ratioP2;P2;SDS_P1;SDS_P2;PMS_P1;PMS_P2;Temp;Humidity;BMP_temperature;BMP_pressure;BME280_temperature;BME280_humidity;BME280_pressure;Samples;Min_cycle;Max_cycle;Signal;HPM_P1;HPM_P2
2021/12/05 00:23:34;;;;;;;1.80;1.70;;;3.50;99.90;;;;;;4997891;28;20252;-74
2021/12/05 00:26:03;;;;;;;1.60;1.60;;;3.60;99.90;;;;;;4983864;28;20680;-74
2021/12/05 01:10:11;;;;;;;3.70;3.40;;;3.10;99.90;;;;;;4994443;28;20605;-74
2021/12/05 01:15:10;;;;;;;2.83;2.70;;;3.10;99.90;;;;;;5002160;28;20276;-74
2021/12/05 01:17:59;;;;;;;3.03;2.83;;;3.10;99.90;;;;;;4974867;28;20301;-74
2021/12/05 01:20:32;;;;;;;3.30;3.10;;;3.10;99.90;;;;;;4992823;28;20205;-74
2021/12/05 01:23:05;;;;;;;2.77;2.60;;;3.10;99.90;;;;;;4999669;28;20194;-74
2021/12/05 01:28:09;;;;;;;2.80;2.70;;;3.20;99.90;;;;;;4995395;28;20221;-73
2021/12/05 01:38:59;;;;;;;2.00;1.90;;;3.20;99.90;;;;;;5000748;28;20699;-74
2021/12/05 01:46:39;;;;;;;2.70;2.50;;;3.10;99.90;;;;;;4991662;28;20181;-74
2021/12/05 01:54:27;;;;;;;3.37;2.87;;;3.10;99.90;;;;;;5000902;28;20542;-73
2021/12/05 02:00:04;;;;;;;3.43;2.10;;;3.00;99.90;;;;;;4994340;28;20181;-74
2021/12/05 02:37:36;;;;;;;4.37;2.70;;;2.80;99.90;;;;;;5002351;28;20570;-74
2021/12/05 02:43:12;;;;;;;2.70;2.50;;;2.70;99.90;;;;;;5001648;28;20197;-73
2021/12/05 02:45:38;;;;;;;2.83;2.63;;;2.80;99.90;;;;;;4985366;28;20208;-73
2021/12/05 02:48:06;;;;;;;2.83;2.67;;;2.70;99.90;;;;;;5003526;28;20217;-73
2021/12/05 02:50:34;;;;;;;3.10;2.13;;;2.60;99.90;;;;;;4996345;28;20174;-73
2021/12/05 02:53:11;;;;;;;2.87;2.63;;;2.60;99.90;;;;;;4995554;28;20644;-73
2021/12/05 02:55:40;;;;;;;4.03;2.30;;;2.60;99.90;;;;;;4994414;28;20181;-72
2021/12/05 03:03:19;;;;;;;2.40;2.20;;;2.60;99.90;;;;;;4996086;28;20609;-72
2021/12/05 03:05:50;;;;;;;5.23;2.60;;;2.60;99.90;;;;;;4976976;28;20549;-73
2021/12/05 03:08:15;;;;;;;2.40;2.20;;;2.50;99.90;;;;;;5001714;28;20251;-73
2021/12/05 03:10:41;;;;;;;2.60;2.40;;;2.40;99.90;;;;;;4995420;28;20181;-72
2021/12/05 03:13:07;;;;;;;2.20;2.10;;;2.30;99.90;;;;;;4994196;28;20186;-73
2021/12/05 03:15:32;;;;;;;3.03;2.10;;;2.30;99.90;;;;;;5002713;28;20682;-73
2021/12/05 03:17:58;;;;;;;4.83;2.43;;;2.30;99.90;;;;;;4996496;28;20333;-73
2021/12/05 03:20:24;;;;;;;2.60;2.10;;;2.30;99.90;;;;;;4993410;28;20746;-73
2021/12/05 03:22:51;;;;;;;4.73;2.57;;;2.30;99.90;;;;;;4996050;28;20213;-73
2021/12/05 03:25:17;;;;;;;3.30;2.77;;;2.20;99.90;;;;;;4989014;28;20185;-74
2021/12/05 03:27:43;;;;;;;2.83;2.63;;;2.20;99.90;;;;;;4990019;28;20225;-73
2021/12/05 03:30:11;;;;;;;2.63;2.43;;;2.20;99.90;;;;;;4993969;28;20178;-73
2021/12/05 03:32:39;;;;;;;2.23;2.03;;;2.10;99.90;;;;;;5001041;28;20177;-73
2021/12/05 03:35:08;;;;;;;4.47;3.07;;;2.00;99.90;;;;;;4999732;28;20201;-72
2021/12/05 03:37:34;;;;;;;5.20;2.30;;;2.00;99.90;;;;;;4990076;28;20217;-73
2021/12/05 03:40:00;;;;;;;5.83;2.90;;;2.00;99.90;;;;;;5005408;28;20264;-72
2021/12/05 03:42:25;;;;;;;2.80;2.60;;;2.00;99.90;;;;;;4999507;28;20616;-73
2021/12/05 03:44:51;;;;;;;6.57;2.60;;;1.90;99.90;;;;;;5000013;28;20675;-74
2021/12/05 03:47:18;;;;;;;4.73;2.40;;;1.90;99.90;;;;;;4980080;28;20232;-73
2021/12/05 03:49:43;;;;;;;2.50;2.30;;;1.90;99.90;;;;;;4993823;28;20637;-74
2021/12/05 03:52:13;;;;;;;3.23;2.47;;;1.90;99.90;;;;;;5001738;28;20173;-74
2021/12/05 03:54:40;;;;;;;2.87;2.50;;;1.90;99.90;;;;;;4993854;28;20290;-73
2021/12/05 03:57:06;;;;;;;2.63;2.43;;;1.80;99.90;;;;;;4995450;28;20209;-73
2021/12/05 03:59:32;;;;;;;2.67;2.47;;;1.70;99.90;;;;;;4995172;28;20177;-73
2021/12/05 04:02:00;;;;;;;2.27;2.07;;;1.70;99.90;;;;;;5001240;28;20209;-74
2021/12/05 04:04:26;;;;;;;2.63;2.40;;;1.80;99.90;;;;;;4995686;28;20280;-74
2021/12/05 04:06:52;;;;;;;2.63;2.40;;;1.90;99.90;;;;;;4993839;28;20651;-73
2021/12/05 04:09:18;;;;;;;1.77;1.67;;;1.90;99.90;;;;;;4997164;28;20178;-73
2021/12/05 04:11:56;;;;;;;2.23;2.13;;;2.00;99.90;;;;;;4983890;28;20184;-73
2021/12/05 04:14:23;;;;;;;4.43;2.27;;;2.00;99.90;;;;;;4994833;28;20606;-73
2021/12/05 04:16:48;;;;;;;3.77;2.47;;;2.00;99.90;;;;;;4994744;28;20209;-74
2021/12/05 04:19:14;;;;;;;1.90;1.83;;;1.90;99.90;;;;;;5000106;28;20547;-74
2021/12/05 04:21:41;;;;;;;2.20;2.10;;;1.90;99.90;;;;;;5004378;28;20181;-74
2021/12/05 04:24:09;;;;;;;2.50;2.10;;;1.90;99.90;;;;;;5000460;28;20189;-74
2021/12/05 04:26:35;;;;;;;3.20;2.23;;;1.90;99.90;;;;;;4994157;28;20213;-74
2021/12/05 04:29:03;;;;;;;6.77;2.87;;;1.90;99.90;;;;;;5008250;28;20185;-73
2021/12/05 04:31:29;;;;;;;3.57;2.70;;;1.90;99.90;;;;;;4979843;28;20578;-73
2021/12/05 04:33:55;;;;;;;2.90;2.70;;;1.90;99.90;;;;;;4996519;28;20635;-73
2021/12/05 04:36:21;;;;;;;3.40;2.63;;;1.90;99.90;;;;;;5000237;28;20233;-74
2021/12/05 04:38:47;;;;;;;4.97;3.10;;;1.80;99.90;;;;;;5001329;28;20533;-73
2021/12/05 04:41:13;;;;;;;5.27;2.70;;;1.80;99.90;;;;;;5001982;28;20678;-72
2021/12/05 04:43:39;;;;;;;4.30;2.77;;;1.70;99.90;;;;;;4992479;28;20185;-74
2021/12/05 04:46:15;;;;;;;5.67;2.20;;;1.60;99.90;;;;;;4988411;28;20197;-74
2021/12/05 04:48:42;;;;;;;4.07;2.30;;;1.60;99.90;;;;;;4987682;28;20182;-74
2021/12/05 04:51:08;;;;;;;3.60;3.17;;;1.60;99.90;;;;;;4994879;28;20209;-73
2021/12/05 04:53:41;;;;;;;3.17;2.37;;;1.60;99.90;;;;;;4990806;28;20183;-73
2021/12/05 04:56:06;;;;;;;2.53;2.10;;;1.50;99.90;;;;;;4986046;28;20178;-73
2021/12/05 04:58:33;;;;;;;3.10;2.33;;;1.60;99.90;;;;;;4993829;28;20182;-73
2021/12/05 05:00:58;;;;;;;2.33;2.07;;;1.60;99.90;;;;;;4993355;28;20184;-73
2021/12/05 05:03:26;;;;;;;2.90;2.20;;;1.60;99.90;;;;;;4992583;28;20178;-73
2021/12/05 05:06:00;;;;;;;2.43;2.27;;;1.70;99.90;;;;;;4990778;28;20178;-73
2021/12/05 05:08:29;;;;;;;3.63;2.33;;;1.70;99.90;;;;;;4991500;28;20193;-73
2021/12/05 05:10:55;;;;;;;4.87;2.30;;;1.70;99.90;;;;;;4992180;28;20628;-73
2021/12/05 05:13:21;;;;;;;5.57;2.30;;;1.70;99.90;;;;;;4992669;28;20232;-74
2021/12/05 05:15:46;;;;;;;2.30;1.87;;;1.70;99.90;;;;;;4993449;28;20536;-73
2021/12/05 05:18:13;;;;;;;2.53;2.33;;;1.60;99.90;;;;;;4993110;28;20685;-74
2021/12/05 05:20:57;;;;;;;3.87;2.30;;;1.50;99.90;;;;;;4990086;28;20248;-73
2021/12/05 05:39:36;;;;;;;5.00;2.17;;;1.80;99.90;;;;;;4988412;28;20193;-74
2021/12/05 05:47:30;;;;;;;2.40;2.20;;;1.80;99.90;;;;;;4985641;28;20765;-72
2021/12/05 05:49:59;;;;;;;2.40;2.20;;;1.80;99.90;;;;;;4986273;28;20191;-73
2021/12/05 05:52:26;;;;;;;4.27;2.20;;;1.90;99.90;;;;;;4988420;28;21910;-73
2021/12/05 05:54:54;;;;;;;3.20;2.40;;;1.90;99.90;;;;;;4988335;28;20186;-73
2021/12/05 05:57:30;;;;;;;4.60;2.27;;;1.90;99.90;;;;;;4987657;28;20695;-72
2021/12/05 06:05:09;;;;;;;2.63;2.43;;;2.20;99.90;;;;;;4990164;28;20213;-72
2021/12/05 06:07:41;;;;;;;3.17;2.50;;;2.20;99.90;;;;;;4986389;28;20232;-73
2021/12/05 06:10:13;;;;;;;6.53;2.63;;;2.20;99.90;;;;;;4987334;28;20181;-73
2021/12/05 06:12:40;;;;;;;2.70;2.50;;;2.20;99.90;;;;;;4988484;28;20189;-72
2021/12/05 06:15:08;;;;;;;2.60;1.90;;;2.30;99.90;;;;;;4987884;28;20182;-72
2021/12/05 06:17:35;;;;;;;4.90;1.83;;;2.30;99.90;;;;;;4985122;28;20285;-72
2021/12/05 06:20:00;;;;;;;5.50;1.90;;;2.40;99.90;;;;;;4987022;28;20691;-72
2021/12/05 06:22:26;;;;;;;4.93;2.00;;;2.40;99.90;;;;;;4985526;28;20198;-73
2021/12/05 06:24:52;;;;;;;1.97;1.80;;;2.40;99.90;;;;;;4985408;28;20190;-72
2021/12/05 06:27:18;;;;;;;1.90;1.80;;;2.40;99.90;;;;;;4985628;28;20789;-72
2021/12/05 06:29:52;;;;;;;2.00;1.90;;;2.50;99.90;;;;;;4987524;28;20264;-72
2021/12/05 06:47:54;;;;;;;5.73;2.30;;;2.20;99.90;;;;;;4986793;28;20268;-72
2021/12/05 06:50:20;;;;;;;2.97;2.30;;;2.10;99.90;;;;;;4986400;28;20642;-72
2021/12/05 06:52:46;;;;;;;4.77;2.30;;;1.90;99.90;;;;;;4985310;28;20174;-72
2021/12/05 06:55:14;;;;;;;2.70;2.30;;;1.80;99.90;;;;;;4984841;28;20186;-72
2021/12/05 06:57:40;;;;;;;4.23;2.50;;;1.80;99.90;;;;;;4984490;28;20217;-72
2021/12/05 07:00:17;;;;;;;3.47;2.23;;;1.70;99.90;;;;;;4971767;28;20272;-72
2021/12/05 07:02:42;;;;;;;3.87;2.50;;;1.70;99.90;;;;;;4983192;28;20209;-72
2021/12/05 07:07:53;;;;;;;3.10;2.33;;;1.60;99.90;;;;;;4978971;28;20716;-72
2021/12/05 07:10:20;;;;;;;3.80;2.60;;;1.60;99.90;;;;;;4978496;28;20178;-72
2021/12/05 07:15:57;;;;;;;6.33;2.80;;;1.60;99.90;;;;;;4954919;28;20567;-72
2021/12/05 07:21:19;;;;;;;5.43;2.43;;;1.80;99.90;;;;;;4983587;28;20190;-72
2021/12/05 07:23:57;;;;;;;4.43;2.73;;;1.90;99.90;;;;;;4975815;28;20197;-72
2021/12/05 07:27:02;;;;;;;4.23;2.70;;;1.80;99.90;;;;;;4976220;28;20562;-72
2021/12/05 07:40:29;;;;;;;5.07;3.33;;;1.90;99.90;;;;;;4981340;28;20194;-72
2021/12/05 07:43:07;;;;;;;4.47;3.87;;;1.90;99.90;;;;;;4976386;28;20217;-72
2021/12/05 07:45:41;;;;;;;4.63;3.50;;;2.00;99.90;;;;;;4970066;28;20186;-72
2021/12/05 07:48:12;;;;;;;5.53;3.33;;;2.00;99.90;;;;;;4983602;28;20689;-72
2021/12/05 07:51:23;;;;;;;4.77;3.40;;;2.00;99.90;;;;;;4986030;28;20178;-72
2021/12/05 07:53:46;;;;;;;4.60;2.57;;;2.10;99.90;;;;;;4991412;28;20190;-72
2021/12/05 07:56:18;;;;;;;7.07;3.67;;;2.10;99.90;;;;;;4991563;28;20553;-72
2021/12/05 07:58:53;;;;;;;6.37;3.37;;;2.10;99.90;;;;;;4989421;28;20189;-73
2021/12/05 08:14:22;;;;;;;6.03;3.27;;;2.10;99.90;;;;;;4984684;28;20178;-72
2021/12/05 08:15:13;;;;;;;6.03;2.97;;;2.50;99.90;;;;;;4989593;28;20224;-72
2021/12/05 08:17:40;;;;;;;6.00;2.83;;;2.50;99.90;;;;;;4986364;28;20202;-72
2021/12/05 08:20:10;;;;;;;5.17;3.20;;;2.60;99.90;;;;;;4986880;28;20191;-72
2021/12/05 08:22:36;;;;;;;3.93;2.70;;;2.70;99.90;;;;;;4990411;28;20564;-72
2021/12/05 08:25:13;;;;;;;7.00;3.27;;;2.90;99.90;;;;;;4988686;28;20531;-72
2021/12/05 08:27:49;;;;;;;5.17;3.17;;;3.10;99.90;;;;;;4989331;28;20716;-72
2021/12/05 08:30:25;;;;;;;5.63;3.60;;;3.10;99.90;;;;;;4988521;28;20531;-72
2021/12/05 08:33:14;;;;;;;5.07;2.70;;;3.40;99.90;;;;;;4986928;28;20190;-71
2021/12/05 09:22:01;;;;;;;5.93;3.13;;;5.30;99.90;;;;;;4986347;28;20756;-78
2021/12/05 09:51:14;;;;;;;3.80;3.15;;;6.20;99.90;;;;;;4981281;28;20186;-78
2021/12/05 09:51:19;;;;;;;3.20;2.90;;;6.00;99.90;;;;;;4985471;28;20189;-77
2021/12/05 10:07:30;;;;;;;2.92;2.72;;;5.10;99.90;;;;;;4982639;28;20219;-76
2021/12/05 10:10:19;;;;;;;3.78;2.92;;;5.30;99.90;;;;;;4977469;28;20729;-75
2021/12/05 10:15:24;;;;;;;3.08;2.85;;;5.70;99.90;;;;;;4982292;28;20186;-75
2021/12/05 10:38:03;;;;;;;3.20;2.90;;;7.90;99.90;;;;;;4977990;28;20206;-75
2021/12/05 10:40:40;;;;;;;4.53;3.10;;;7.70;99.90;;;;;;4976719;28;20187;-76
2021/12/05 10:43:20;;;;;;;4.30;2.85;;;7.50;99.90;;;;;;4987243;28;20196;-75
2021/12/05 10:45:51;;;;;;;3.47;3.10;;;7.50;99.90;;;;;;4987551;28;20185;-75
2021/12/05 10:48:37;;;;;;;4.78;3.40;;;7.40;99.90;;;;;;4986255;28;20202;-72
2021/12/05 10:51:08;;;;;;;5.70;3.40;;;7.50;99.90;;;;;;4987810;28;20657;-72
2021/12/05 10:53:38;;;;;;;3.80;3.10;;;7.60;99.90;;;;;;4982505;28;20181;-72
2021/12/05 10:56:21;;;;;;;3.67;2.83;;;7.70;99.90;;;;;;4976944;28;20194;-71
2021/12/05 10:58:50;;;;;;;2.65;2.45;;;7.40;99.90;;;;;;4983093;28;20210;-72
2021/12/05 11:01:20;;;;;;;2.55;2.30;;;6.90;99.90;;;;;;4987657;28;20184;-73
2021/12/05 11:03:50;;;;;;;2.83;2.50;;;6.30;99.90;;;;;;4973932;28;20190;-72
2021/12/05 11:06:32;;;;;;;3.08;2.88;;;5.70;99.90;;;;;;4978196;28;20177;-72
2021/12/05 11:09:14;;;;;;;2.65;2.45;;;5.50;99.90;;;;;;4983641;28;20205;-73
2021/12/05 11:11:43;;;;;;;4.07;2.80;;;5.60;99.90;;;;;;4975166;28;20191;-72
2021/12/05 11:14:12;;;;;;;2.65;2.55;;;5.70;99.90;;;;;;4985030;28;20439;-72
2021/12/05 11:16:41;;;;;;;2.80;2.60;;;5.80;99.90;;;;;;4987966;28;20201;-72
2021/12/05 11:19:12;;;;;;;3.15;2.85;;;5.90;99.90;;;;;;4994246;28;20187;-72
2021/12/05 11:21:46;;;;;;;3.38;3.05;;;5.80;99.90;;;;;;4984595;28;20193;-72
2021/12/05 11:24:21;;;;;;;3.83;3.53;;;5.90;99.90;;;;;;4988466;28;20186;-72
2021/12/05 11:27:06;;;;;;;4.03;3.47;;;6.20;99.90;;;;;;4962572;28;20201;-72
2021/12/05 11:30:03;;;;;;;3.63;3.38;;;6.40;99.90;;;;;;4968958;28;20173;-72
2021/12/05 11:32:39;;;;;;;4.78;3.60;;;6.40;99.90;;;;;;4983213;28;20182;-72
2021/12/05 11:35:15;;;;;;;4.55;3.38;;;6.40;99.90;;;;;;4967078;28;20188;-72
2021/12/05 11:37:57;;;;;;;4.25;3.92;;;6.60;99.90;;;;;;4973722;28;20227;-72
2021/12/05 11:40:26;;;;;;;4.30;3.55;;;6.60;99.90;;;;;;4995064;28;20238;-72
2021/12/05 11:43:02;;;;;;;4.03;3.63;;;6.60;99.90;;;;;;4999596;28;20178;-71
2021/12/05 11:45:30;;;;;;;5.68;4.10;;;6.30;99.90;;;;;;4998395;28;20197;-73
2021/12/05 11:47:58;;;;;;;4.38;4.00;;;5.80;99.90;;;;;;4990596;28;20284;-72
2021/12/05 11:50:35;;;;;;;5.32;3.65;;;5.90;99.90;;;;;;4976409;28;20186;-72
2021/12/05 11:53:03;;;;;;;4.28;3.83;;;6.10;99.90;;;;;;4996055;28;20170;-72
2021/12/05 11:55:31;;;;;;;5.03;3.85;;;6.00;99.90;;;;;;4988770;28;20213;-72
2021/12/05 11:57:58;;;;;;;4.68;3.85;;;6.10;99.90;;;;;;4987384;28;20202;-72
2021/12/05 12:00:27;;;;;;;5.35;3.58;;;6.00;99.90;;;;;;4978299;28;20592;-72
2021/12/05 12:02:53;;;;;;;4.70;4.05;;;5.80;99.90;;;;;;4992710;28;20178;-71
2021/12/05 12:05:26;;;;;;;4.82;4.32;;;5.40;99.90;;;;;;4977367;28;20213;-72
2021/12/05 12:08:03;;;;;;;4.90;4.15;;;5.30;99.90;;;;;;4976728;28;20244;-73
2021/12/05 12:10:34;;;;;;;4.40;3.53;;;5.50;99.90;;;;;;4980561;28;20216;-73
2021/12/05 12:13:13;;;;;;;4.22;3.83;;;5.60;99.90;;;;;;4979541;28;20839;-73
2021/12/05 12:15:42;;;;;;;4.45;3.83;;;5.60;99.90;;;;;;4976067;28;20207;-73
2021/12/05 12:18:32;;;;;;;3.80;3.50;;;5.50;99.90;;;;;;4985664;28;20210;-72
2021/12/05 12:21:00;;;;;;;4.22;3.90;;;5.30;99.90;;;;;;4979389;28;20700;-73
2021/12/05 12:23:26;;;;;;;5.38;4.68;;;5.30;99.90;;;;;;4985621;28;20190;-73
2021/12/05 12:25:55;;;;;;;5.32;4.18;;;5.30;99.90;;;;;;4987680;28;20187;-74
2021/12/05 12:28:21;;;;;;;6.18;3.55;;;5.50;99.90;;;;;;4980858;28;20697;-74
2021/12/05 12:30:55;;;;;;;5.68;3.58;;;5.70;99.90;;;;;;4980085;28;20186;-73
2021/12/05 12:33:26;;;;;;;3.05;2.85;;;5.40;99.90;;;;;;4990354;28;20178;-72
2021/12/05 12:35:52;;;;;;;5.00;2.97;;;5.40;99.90;;;;;;4992808;28;20186;-71
2021/12/05 12:38:22;;;;;;;4.05;3.25;;;5.60;99.90;;;;;;4984461;28;20294;-72
2021/12/05 12:40:52;;;;;;;3.63;3.30;;;5.50;99.90;;;;;;4989448;28;20194;-73
2021/12/05 12:43:38;;;;;;;3.55;3.30;;;5.30;99.90;;;;;;4981460;28;20273;-73
2021/12/05 12:46:36;;;;;;;3.97;3.58;;;5.20;99.90;;;;;;4980205;28;20178;-72
2021/12/05 12:49:17;;;;;;;4.13;3.58;;;5.30;99.90;;;;;;4988323;28;20188;-72
2021/12/05 12:51:51;;;;;;;5.72;3.75;;;5.30;99.90;;;;;;4980136;28;20197;-73
2021/12/05 12:54:35;;;;;;;3.80;3.50;;;5.50;99.90;;;;;;4983625;28;20178;-72
2021/12/05 12:57:01;;;;;;;4.05;3.70;;;5.40;99.90;;;;;;4984363;28;20202;-73
2021/12/05 12:59:34;;;;;;;4.63;4.20;;;5.30;99.90;;;;;;4980975;28;20671;-73
2021/12/05 13:10:41;;;;;;;4.03;3.72;;;5.80;99.90;;;;;;4993163;28;20176;-73
2021/12/05 13:13:26;;;;;;;4.57;3.45;;;5.90;99.90;;;;;;4987422;28;20182;-73
2021/12/05 13:15:57;;;;;;;5.90;3.67;;;5.80;99.90;;;;;;4988119;28;20551;-72
2021/12/05 13:18:32;;;;;;;3.97;3.20;;;5.50;99.90;;;;;;4989772;28;20217;-73
2021/12/05 13:21:03;;;;;;;2.67;2.42;;;5.50;99.90;;;;;;4983955;28;21337;-73
2021/12/05 13:23:37;;;;;;;3.92;3.33;;;5.60;99.90;;;;;;4986323;28;20709;-72
2021/12/05 13:26:23;;;;;;;4.10;2.83;;;5.60;99.90;;;;;;4985358;28;20197;-71
2021/12/05 13:29:11;;;;;;;3.30;2.67;;;5.70;99.90;;;;;;4989542;28;20185;-72
2021/12/05 13:31:43;;;;;;;2.80;2.60;;;5.40;99.90;;;;;;4993154;28;20186;-72
2021/12/05 13:34:30;;;;;;;3.35;3.03;;;5.30;99.90;;;;;;4990895;28;20281;-72
2021/12/05 13:37:08;;;;;;;4.05;2.97;;;5.00;99.90;;;;;;4972912;28;20201;-72
2021/12/05 13:39:54;;;;;;;4.15;3.08;;;4.80;99.90;;;;;;4986771;28;20177;-72
2021/12/05 13:42:42;;;;;;;5.18;3.42;;;4.60;99.90;;;;;;4969749;28;20271;-72
2021/12/05 13:45:39;;;;;;;4.15;3.60;;;4.30;99.90;;;;;;4980056;28;20546;-72
2021/12/05 13:48:19;;;;;;;3.80;3.50;;;4.30;99.90;;;;;;4977388;28;20301;-72
2021/12/05 13:50:52;;;;;;;3.95;3.60;;;4.30;99.90;;;;;;4985208;28;20182;-72
2021/12/05 13:53:21;;;;;;;3.85;3.53;;;4.40;99.90;;;;;;4985039;28;20178;-72
2021/12/05 13:55:56;;;;;;;3.25;3.05;;;4.30;99.90;;;;;;4985015;28;20175;-72
2021/12/05 13:58:43;;;;;;;3.90;3.60;;;4.30;99.90;;;;;;4984733;28;20294;-72
2021/12/05 14:01:21;;;;;;;3.67;3.38;;;4.30;99.90;;;;;;4985066;28;20182;-72
2021/12/05 14:04:10;;;;;;;3.65;3.30;;;4.30;99.90;;;;;;4978022;28;20189;-73
2021/12/05 14:06:53;;;;;;;4.67;4.27;;;4.10;99.90;;;;;;4987280;28;20705;-73
2021/12/05 14:09:39;;;;;;;3.22;3.03;;;4.00;99.90;;;;;;4973077;28;20201;-73
2021/12/05 14:12:17;;;;;;;3.47;3.25;;;4.00;99.90;;;;;;4981476;28;20170;-73
2021/12/05 14:14:46;;;;;;;3.83;3.47;;;3.90;99.90;;;;;;4985097;28;20191;-73
2021/12/05 14:17:37;;;;;;;4.97;3.83;;;4.00;99.90;;;;;;4984159;28;20250;-72
2021/12/05 14:20:17;;;;;;;5.57;4.50;;;3.90;99.90;;;;;;4982819;28;20661;-72
2021/12/05 14:22:46;;;;;;;4.75;4.28;;;4.00;99.90;;;;;;4988586;28;20198;-72
2021/12/05 14:25:14;;;;;;;4.50;4.20;;;3.90;99.90;;;;;;4989024;28;20885;-72
2021/12/05 14:27:42;;;;;;;5.50;4.57;;;3.80;99.90;;;;;;4990423;28;20890;-72
2021/12/05 14:30:11;;;;;;;6.57;4.97;;;3.60;99.90;;;;;;4971375;28;20174;-72
2021/12/05 14:32:41;;;;;;;9.93;5.43;;;3.60;99.90;;;;;;4987547;28;20189;-72
2021/12/05 14:35:13;;;;;;;5.83;5.33;;;3.50;99.90;;;;;;4989333;28;20177;-72
2021/12/05 14:37:42;;;;;;;7.37;5.80;;;3.40;99.90;;;;;;4988318;28;20206;-73
2021/12/05 14:40:10;;;;;;;5.77;5.17;;;3.30;99.90;;;;;;4992010;28;20186;-72
2021/12/05 14:42:39;;;;;;;4.47;4.07;;;3.30;99.90;;;;;;4996559;28;20240;-73
2021/12/05 14:45:13;;;;;;;5.63;4.60;;;3.20;99.90;;;;;;4993715;28;20182;-73
2021/12/05 14:47:41;;;;;;;5.27;4.77;;;3.20;99.90;;;;;;4985061;28;20205;-73
2021/12/05 14:50:20;;;;;;;5.00;4.50;;;3.10;99.90;;;;;;4983705;28;20265;-72
2021/12/05 14:52:48;;;;;;;6.77;5.10;;;3.20;99.90;;;;;;4986671;28;20182;-72
2021/12/05 14:55:20;;;;;;;7.37;4.80;;;3.20;99.90;;;;;;4983900;28;20174;-72
2021/12/05 14:57:50;;;;;;;5.83;4.60;;;3.20;99.90;;;;;;4981673;28;20217;-72
2021/12/05 15:00:24;;;;;;;5.37;4.90;;;3.30;99.90;;;;;;4981106;28;20182;-72
2021/12/05 15:03:08;;;;;;;8.23;5.07;;;3.20;99.90;;;;;;4985098;28;20648;-73
2021/12/05 15:05:37;;;;;;;8.03;5.60;;;3.10;99.90;;;;;;4982244;28;20233;-72
2021/12/05 15:08:04;;;;;;;6.93;6.17;;;3.10;99.90;;;;;;4985165;28;20210;-72
2021/12/05 15:10:30;;;;;;;10.07;6.37;;;2.90;99.90;;;;;;4986467;28;20189;-71
2021/12/05 15:12:56;;;;;;;8.03;6.80;;;2.80;99.90;;;;;;4965662;28;20182;-71
2021/12/05 15:15:24;;;;;;;7.73;6.83;;;2.70;99.90;;;;;;4985410;28;20193;-71
2021/12/05 15:17:50;;;;;;;7.40;6.43;;;2.70;99.90;;;;;;4981833;28;20202;-71
2021/12/05 15:20:19;;;;;;;7.47;6.63;;;2.70;99.90;;;;;;4969608;28;20204;-71
2021/12/05 15:23:00;;;;;;;8.70;7.47;;;2.70;99.90;;;;;;4982502;28;20221;-71
2021/12/05 15:25:30;;;;;;;8.17;7.27;;;2.70;99.90;;;;;;4984660;28;20185;-71
2021/12/05 15:27:57;;;;;;;9.73;7.27;;;2.60;99.90;;;;;;4978560;28;20210;-71
2021/12/05 15:30:28;;;;;;;9.10;7.70;;;2.60;99.90;;;;;;4984519;28;20675;-71
2021/12/05 15:33:09;;;;;;;8.03;7.13;;;2.60;99.90;;;;;;4983468;28;20548;-71
2021/12/05 15:35:36;;;;;;;10.23;8.23;;;2.60;99.90;;;;;;4973370;28;20648;-71
2021/12/05 15:38:09;;;;;;;8.47;7.60;;;2.50;99.90;;;;;;4987404;28;20198;-71
2021/12/05 15:40:37;;;;;;;8.33;7.63;;;2.50;99.90;;;;;;4990815;28;20192;-71
2021/12/05 15:43:10;;;;;;;12.87;9.00;;;2.40;99.90;;;;;;4988817;28;20210;-72
2021/12/05 15:45:38;;;;;;;9.50;8.47;;;2.30;99.90;;;;;;4983168;28;20182;-71
2021/12/05 15:48:04;;;;;;;10.33;8.77;;;2.30;99.90;;;;;;4983000;28;20498;-71
2021/12/05 15:50:37;;;;;;;10.67;8.83;;;2.20;99.90;;;;;;4977927;28;20189;-73
2021/12/05 15:53:12;;;;;;;10.40;9.30;;;2.20;99.90;;;;;;4980811;28;20178;-71
2021/12/05 15:55:44;;;;;;;9.23;8.33;;;2.20;99.90;;;;;;4979076;28;20185;-73
2021/12/05 15:58:20;;;;;;;10.00;8.47;;;2.30;99.90;;;;;;4980992;28;20205;-72
2021/12/05 16:00:51;;;;;;;13.20;8.53;;;2.40;99.90;;;;;;4986527;28;20541;-78
2021/12/05 16:03:24;;;;;;;12.13;9.53;;;2.50;99.90;;;;;;4983395;28;20174;-78
2021/12/05 16:05:59;;;;;;;9.70;8.70;;;2.50;99.90;;;;;;4971611;28;20182;-72
2021/12/05 16:08:31;;;;;;;10.70;8.33;;;2.60;99.90;;;;;;4983533;28;20217;-73
2021/12/05 16:10:59;;;;;;;9.43;8.53;;;2.60;99.90;;;;;;4983447;28;20182;-79
2021/12/05 16:13:37;;;;;;;9.60;8.60;;;2.60;99.90;;;;;;4988725;28;20181;-78
2021/12/05 16:16:15;;;;;;;9.77;8.77;;;2.50;99.90;;;;;;4984956;28;20197;-79
2021/12/05 16:18:45;;;;;;;10.07;9.10;;;2.50;99.90;;;;;;4976593;28;20181;-79
2021/12/05 16:21:26;;;;;;;10.90;8.37;;;2.40;99.90;;;;;;4984456;28;20218;-79
2021/12/05 16:23:52;;;;;;;9.67;8.53;;;2.30;99.90;;;;;;4988586;28;20220;-78
2021/12/05 16:26:28;;;;;;;11.77;8.67;;;2.20;99.90;;;;;;4972567;28;20276;-78
2021/12/05 16:29:05;;;;;;;11.40;8.60;;;2.20;99.90;;;;;;4987920;28;20269;-78
2021/12/05 16:31:37;;;;;;;12.13;9.00;;;2.10;99.90;;;;;;4988036;28;20660;-79
2021/12/05 16:34:07;;;;;;;12.00;9.23;;;2.00;99.90;;;;;;4968743;28;20175;-79
2021/12/05 16:36:37;;;;;;;10.70;9.60;;;1.90;99.90;;;;;;4977824;28;20206;-79
2021/12/05 16:39:18;;;;;;;11.10;10.00;;;1.90;99.90;;;;;;4986801;28;20261;-77
2021/12/05 16:41:50;;;;;;;12.07;10.87;;;1.90;99.90;;;;;;4984476;28;20188;-79
2021/12/05 16:44:28;;;;;;;11.57;10.37;;;1.80;99.90;;;;;;4973796;28;20255;-78
2021/12/05 16:47:01;;;;;;;11.00;9.87;;;1.90;99.90;;;;;;4986964;28;20703;-79
2021/12/05 16:49:39;;;;;;;11.67;10.00;;;1.80;99.90;;;;;;4989805;28;20761;-80
2021/12/05 16:52:19;;;;;;;10.70;9.70;;;1.80;99.90;;;;;;4984596;28;20184;-79
2021/12/05 16:54:53;;;;;;;12.13;10.87;;;1.80;99.90;;;;;;4986572;28;20546;-79
2021/12/05 16:57:28;;;;;;;11.37;10.27;;;1.80;99.90;;;;;;4973862;28;20252;-79
2021/12/05 16:59:57;;;;;;;13.50;10.93;;;1.80;99.90;;;;;;4988047;28;20204;-79
2021/12/05 17:02:27;;;;;;;12.70;10.47;;;1.80;99.90;;;;;;4971342;28;20186;-79
2021/12/05 17:05:11;;;;;;;15.63;12.57;;;1.70;99.90;;;;;;4977534;28;20182;-79
2021/12/05 17:07:49;;;;;;;14.50;11.93;;;1.70;99.90;;;;;;4984957;28;20225;-78
2021/12/05 17:10:24;;;;;;;12.93;11.57;;;1.60;99.90;;;;;;4974589;28;20177;-79
2021/12/05 17:12:54;;;;;;;13.33;10.97;;;1.50;99.90;;;;;;4966155;28;20273;-79
2021/12/05 17:15:23;;;;;;;12.73;10.30;;;1.50;99.90;;;;;;4977131;28;20214;-79
2021/12/05 17:17:51;;;;;;;15.27;11.90;;;1.40;99.90;;;;;;4985376;28;20720;-81
2021/12/05 17:20:24;;;;;;;12.67;11.33;;;1.30;99.90;;;;;;4987509;28;20194;-81
2021/12/05 17:23:01;;;;;;;16.67;12.20;;;1.30;99.90;;;;;;4968405;28;20336;-80
2021/12/05 17:25:28;;;;;;;16.00;11.83;;;1.20;99.90;;;;;;4974892;28;20464;-79
2021/12/05 17:27:53;;;;;;;14.37;11.07;;;1.10;99.90;;;;;;4976792;28;20205;-80
2021/12/05 17:30:19;;;;;;;12.27;10.80;;;1.10;99.90;;;;;;4972943;28;20186;-76
2021/12/05 17:32:45;;;;;;;17.13;12.93;;;1.00;99.90;;;;;;4982192;28;20166;-76
2021/12/05 17:35:10;;;;;;;16.03;12.53;;;1.00;99.90;;;;;;4987327;28;20187;-76
2021/12/05 17:37:36;;;;;;;18.27;12.80;;;1.10;99.90;;;;;;4963367;28;20198;-75
2021/12/05 17:40:06;;;;;;;15.03;12.23;;;1.10;99.90;;;;;;4976343;28;20261;-75
2021/12/05 17:42:32;;;;;;;15.93;13.33;;;1.00;99.90;;;;;;4980951;28;20263;-75
2021/12/05 17:45:03;;;;;;;14.83;12.60;;;1.10;99.90;;;;;;4968277;28;20183;-78
2021/12/05 17:47:29;;;;;;;19.67;14.40;;;1.00;99.90;;;;;;4975167;28;20246;-72
2021/12/05 17:49:57;;;;;;;16.73;14.17;;;0.90;99.90;;;;;;4978462;28;20274;-74
2021/12/05 17:52:25;;;;;;;19.63;14.20;;;0.90;99.90;;;;;;4985379;28;20186;-75
2021/12/05 17:55:08;;;;;;;18.10;14.40;;;0.80;99.90;;;;;;4987064;28;20174;-75
2021/12/05 17:57:43;;;;;;;16.97;14.27;;;0.80;99.90;;;;;;4985143;28;20202;-73
2021/12/05 18:00:34;;;;;;;17.37;13.70;;;0.80;99.90;;;;;;4978196;28;20239;-73
2021/12/05 18:03:02;;;;;;;16.70;14.37;;;0.80;99.90;;;;;;4974597;28;20204;-72
2021/12/05 18:05:30;;;;;;;16.60;13.97;;;0.90;99.90;;;;;;4979111;28;20190;-72
2021/12/05 18:07:59;;;;;;;19.03;15.60;;;0.90;99.90;;;;;;4982226;28;20216;-71
2021/12/05 18:10:30;;;;;;;20.67;15.80;;;1.00;99.90;;;;;;4978265;28;20193;-73
2021/12/05 18:12:59;;;;;;;20.03;15.57;;;1.10;99.90;;;;;;4993640;28;20178;-76
2021/12/05 18:15:29;;;;;;;21.37;16.13;;;1.20;99.90;;;;;;4987252;28;20179;-76
2021/12/05 18:17:57;;;;;;;19.70;16.40;;;1.30;99.90;;;;;;4985730;28;20202;-77
2021/12/05 18:20:25;;;;;;;19.90;16.27;;;1.30;99.90;;;;;;4983485;28;20257;-77
2021/12/05 18:22:54;;;;;;;19.23;16.73;;;1.30;99.90;;;;;;4982502;28;20232;-76
2021/12/05 18:25:20;;;;;;;24.37;16.37;;;1.30;99.90;;;;;;4985338;28;20201;-77
2021/12/05 18:27:45;;;;;;;24.30;17.50;;;1.40;99.90;;;;;;4981556;28;20206;-76
2021/12/05 18:30:14;;;;;;;27.43;18.40;;;1.40;99.90;;;;;;4984307;28;20197;-76
2021/12/05 18:32:40;;;;;;;32.80;19.67;;;1.30;99.90;;;;;;4968574;28;20221;-77
2021/12/05 18:35:07;;;;;;;29.90;20.57;;;1.30;99.90;;;;;;4971090;28;20243;-77
2021/12/05 18:37:32;;;;;;;24.97;17.97;;;1.40;99.90;;;;;;4966517;28;20220;-77
2021/12/05 18:39:58;;;;;;;23.27;17.90;;;1.40;99.90;;;;;;4980190;28;20775;-76